Time,TemperatureF,DewpointF,PressureIn,WindDirection,WindDirectionDegrees,WindSpeedMPH,WindSpeedGustMPH,Humidity,HourlyPrecipIn,Conditions,Clouds,dailyrainin,SoftwareType,DateUTC
2013-12-09 00:04:00,48.8,48.0,30.19,NE,42,0.0,0.0,97,0.13,RA,,0.01,WeatherDisplay:10.37,2013-12-09 06:04:00,
2013-12-09 00:09:00,48.8,48.0,30.19,NE,42,0.0,0.0,97,0.10,RA,,0.01,WeatherDisplay:10.37,2013-12-09 06:09:00,
2013-12-09 00:14:00,48.8,48.0,30.19,NE,42,0.0,0.0,97,0.07,RA,,0.02,WeatherDisplay:10.37,2013-12-09 06:14:00,
2013-12-09 00:19:00,48.8,48.0,30.18,NE,42,0.0,0.0,97,0.06,RA,,0.02,WeatherDisplay:10.37,2013-12-09 06:19:00,
2013-12-09 00:24:00,48.8,48.0,30.18,NE,42,0.0,0.0,97,0.05,CLR,,0.02,WeatherDisplay:10.37,2013-12-09 06:24:00,
2013-12-09 00:29:00,48.6,47.8,30.18,NE,42,0.0,0.0,97,0.05,RA,,0.03,WeatherDisplay:10.37,2013-12-09 06:29:00,
2013-12-09 00:34:00,48.6,47.8,30.19,NE,42,0.0,0.0,97,0.05,RA,,0.03,WeatherDisplay:10.37,2013-12-09 06:34:00,
2013-12-09 00:39:00,48.6,47.8,30.18,NE,42,0.0,0.0,97,0.04,,,0.03,WeatherDisplay:10.37,2013-12-09 06:39:00,
2013-12-09 00:44:00,48.6,47.8,30.17,NE,42,0.0,0.0,97,0.03,CLR,,0.03,WeatherDisplay:10.37,2013-12-09 06:44:00,
2013-12-09 00:49:00,48.6,47.8,30.18,NE,42,0.0,0.0,97,0.03,CLR,,0.03,WeatherDisplay:10.37,2013-12-09 06:49:00,
2013-12-09 00:54:00,48.6,47.8,30.17,NE,42,0.0,0.0,97,0.03,CLR,,0.03,WeatherDisplay:10.37,2013-12-09 06:54:00,
2013-12-09 00:59:00,48.6,47.8,30.17,NE,42,0.0,0.0,97,0.03,CLR,,0.03,WeatherDisplay:10.37,2013-12-09 06:59:00,
2013-12-09 01:04:00,48.6,47.8,30.17,NE,42,0.0,0.0,97,0.02,CLR,,0.03,WeatherDisplay:10.37,2013-12-09 07:04:00,
2013-12-09 01:09:00,48.6,47.8,30.17,NE,42,0.0,0.0,97,0.02,CLR,,0.03,WeatherDisplay:10.37,2013-12-09 07:09:00,
2013-12-09 01:14:00,48.6,47.8,30.17,NE,42,0.0,0.0,97,0.02,RA,,0.04,WeatherDisplay:10.37,2013-12-09 07:14:00,
2013-12-09 01:19:00,48.6,47.8,30.17,NE,42,0.0,0.0,97,0.02,RA,,0.04,WeatherDisplay:10.37,2013-12-09 07:19:00,
2013-12-09 01:24:00,48.6,47.8,30.17,NE,42,0.0,0.0,97,0.04,RA,,0.06,WeatherDisplay:10.37,2013-12-09 07:24:00,
2013-12-09 01:29:00,48.6,47.8,30.17,NE,42,0.0,0.0,97,0.03,RA,,0.06,WeatherDisplay:10.37,2013-12-09 07:29:00,
2013-12-09 01:34:00,48.6,47.8,30.17,NE,42,0.0,0.0,97,0.03,,,0.07,WeatherDisplay:10.37,2013-12-09 07:34:00,
2013-12-09 01:39:00,48.6,47.8,30.17,NE,42,0.0,0.0,97,0.04,RA,,0.07,WeatherDisplay:10.37,2013-12-09 07:39:00,
2013-12-09 01:44:00,48.6,47.8,30.17,NE,42,0.0,0.0,97,0.05,RA,,0.08,WeatherDisplay:10.37,2013-12-09 07:44:00,
2013-12-09 01:49:00,48.6,47.8,30.18,NE,42,0.0,0.0,97,0.05,RA,,0.08,WeatherDisplay:10.37,2013-12-09 07:49:00,
2013-12-09 01:54:00,48.8,48.0,30.17,NE,42,0.0,0.0,97,0.05,,,0.08,WeatherDisplay:10.37,2013-12-09 07:54:00,
2013-12-09 01:59:00,48.8,48.0,30.17,NE,42,0.0,0.0,97,0.05,CLR,,0.08,WeatherDisplay:10.37,2013-12-09 07:59:00,
2013-12-09 02:04:00,48.8,48.0,30.17,NE,42,0.0,0.0,97,0.05,CLR,,0.08,WeatherDisplay:10.37,2013-12-09 08:04:00,
2013-12-09 02:09:00,48.8,48.0,30.17,NE,42,0.0,0.0,97,0.07,RA,,0.10,WeatherDisplay:10.37,2013-12-09 08:09:00,
2013-12-09 02:14:00,48.6,47.8,30.17,NE,42,0.0,0.0,97,0.06,RA,,0.10,WeatherDisplay:10.37,2013-12-09 08:14:00,
2013-12-09 02:19:00,48.8,48.0,30.19,NE,42,0.0,0.0,97,0.07,RA,,0.11,WeatherDisplay:10.37,2013-12-09 08:19:00,
2013-12-09 02:24:00,48.8,48.0,30.17,NE,42,0.0,0.0,97,0.06,RA,,0.12,WeatherDisplay:10.37,2013-12-09 08:24:00,
2013-12-09 02:29:00,48.8,48.0,30.18,NE,42,0.0,0.0,97,0.06,RA,,0.12,WeatherDisplay:10.37,2013-12-09 08:29:00,
2013-12-09 02:34:00,48.8,48.0,30.18,NE,42,0.0,0.0,97,0.06,RA,,0.13,WeatherDisplay:10.37,2013-12-09 08:34:00,
2013-12-09 02:39:00,48.8,48.0,30.18,NE,42,0.0,0.0,97,0.06,RA,,0.13,WeatherDisplay:10.37,2013-12-09 08:39:00,
2013-12-09 02:44:00,48.8,48.0,30.19,NE,42,0.0,0.0,97,0.06,RA,,0.14,WeatherDisplay:10.37,2013-12-09 08:44:00,
2013-12-09 02:49:00,48.8,48.0,30.18,NE,42,0.0,0.0,97,0.06,RA,,0.14,WeatherDisplay:10.37,2013-12-09 08:49:00,
2013-12-09 02:54:00,48.8,48.0,30.17,NE,42,0.0,0.0,97,0.06,,,0.14,WeatherDisplay:10.37,2013-12-09 08:54:00,
2013-12-09 02:56:00,48.8,48.0,30.17,NE,42,0.0,0.0,97,0.06,CLR,,0.15,WeatherDisplay:10.37,2013-12-09 08:56:00,
2013-12-09 03:01:00,48.8,48.0,30.19,NE,42,0.0,0.0,97,0.07,RA,,0.15,WeatherDisplay:10.37,2013-12-09 09:01:00,
2013-12-09 03:06:00,48.9,48.1,30.17,NE,42,0.0,0.0,97,0.06,RA,,0.15,WeatherDisplay:10.37,2013-12-09 09:06:00,
2013-12-09 03:11:00,48.9,48.1,30.17,NE,42,0.0,0.0,97,0.05,CLR,,0.15,WeatherDisplay:10.37,2013-12-09 09:11:00,
2013-12-09 03:16:00,48.9,48.1,30.17,NE,42,0.0,0.0,97,0.05,CLR,,0.15,WeatherDisplay:10.37,2013-12-09 09:16:00,
2013-12-09 03:21:00,48.8,48.0,30.17,NE,42,0.0,0.0,97,0.04,CLR,,0.15,WeatherDisplay:10.37,2013-12-09 09:21:00,
2013-12-09 03:26:00,48.8,48.0,30.18,NE,42,0.0,0.0,97,0.03,CLR,,0.15,WeatherDisplay:10.37,2013-12-09 09:26:00,
2013-12-09 03:31:00,48.8,48.0,30.18,NE,42,0.0,0.0,97,0.03,CLR,,0.15,WeatherDisplay:10.37,2013-12-09 09:31:00,
2013-12-09 03:36:00,48.8,48.0,30.17,NE,42,0.0,0.0,97,0.02,CLR,,0.15,WeatherDisplay:10.37,2013-12-09 09:36:00,
2013-12-09 03:41:00,48.8,48.0,30.17,NE,42,0.0,0.0,97,0.02,CLR,,0.15,WeatherDisplay:10.37,2013-12-09 09:41:00,
2013-12-09 03:46:00,48.9,48.1,30.17,NE,42,0.0,0.0,97,0.01,CLR,,0.15,WeatherDisplay:10.37,2013-12-09 09:46:00,
2013-12-09 03:51:00,48.9,48.1,30.17,NE,42,0.0,0.0,97,0.01,CLR,,0.15,WeatherDisplay:10.37,2013-12-09 09:51:00,
2013-12-09 03:56:00,48.9,48.1,30.17,NE,42,0.0,0.0,97,0.01,CLR,,0.15,WeatherDisplay:10.37,2013-12-09 09:56:00,
2013-12-09 04:01:00,48.9,48.1,30.17,NE,42,0.0,0.0,97,0.00,CLR,,0.15,WeatherDisplay:10.37,2013-12-09 10:01:00,
2013-12-09 04:07:00,48.9,48.1,30.17,NE,42,0.0,0.0,97,0.00,CLR,,0.15,WeatherDisplay:10.37,2013-12-09 10:07:00,
2013-12-09 04:12:00,48.9,48.1,30.18,NE,42,0.0,0.0,97,0.00,CLR,,0.15,WeatherDisplay:10.37,2013-12-09 10:12:00,
2013-12-09 04:17:00,48.9,48.1,30.19,NE,42,0.0,0.0,97,0.00,CLR,,0.15,WeatherDisplay:10.37,2013-12-09 10:17:00,
2013-12-09 04:22:00,48.9,48.1,30.18,NE,42,0.0,0.0,97,0.01,RA,,0.16,WeatherDisplay:10.37,2013-12-09 10:22:00,
2013-12-09 04:27:00,48.9,48.1,30.19,NE,42,0.0,0.0,97,0.01,RA,,0.16,WeatherDisplay:10.37,2013-12-09 10:27:00,
2013-12-09 04:32:00,48.9,48.1,30.19,NE,42,0.0,0.0,97,0.01,CLR,,0.16,WeatherDisplay:10.37,2013-12-09 10:32:00,
2013-12-09 04:37:00,48.9,48.1,30.19,NE,42,0.0,0.0,97,0.01,CLR,,0.16,WeatherDisplay:10.37,2013-12-09 10:37:00,
2013-12-09 04:42:00,48.9,48.1,30.19,NE,42,0.0,0.0,97,0.01,CLR,,0.16,WeatherDisplay:10.37,2013-12-09 10:42:00,
2013-12-09 04:47:00,48.9,48.1,30.19,NE,42,0.0,0.0,97,0.01,CLR,,0.16,WeatherDisplay:10.37,2013-12-09 10:47:00,
2013-12-09 04:52:00,48.9,48.1,30.19,NE,42,0.0,0.0,97,0.01,CLR,,0.16,WeatherDisplay:10.37,2013-12-09 10:52:00,
2013-12-09 04:57:00,48.9,48.1,30.19,NE,42,0.0,0.0,97,0.01,CLR,,0.16,WeatherDisplay:10.37,2013-12-09 10:57:00,
2013-12-09 05:01:00,48.9,48.1,30.19,NE,42,0.0,0.0,97,0.01,CLR,,0.16,WeatherDisplay:10.37,2013-12-09 11:01:00,
2013-12-09 05:06:00,48.9,48.1,30.19,NE,42,0.0,0.0,97,0.01,CLR,,0.16,WeatherDisplay:10.37,2013-12-09 11:06:00,
2013-12-09 05:11:00,48.9,48.1,30.20,NE,42,0.0,0.0,97,0.01,CLR,,0.16,WeatherDisplay:10.37,2013-12-09 11:11:00,
2013-12-09 05:16:00,48.9,48.1,30.19,NE,42,0.0,0.0,97,0.01,CLR,,0.16,WeatherDisplay:10.37,2013-12-09 11:16:00,
2013-12-09 05:21:00,48.9,48.1,30.20,NE,42,0.0,0.0,97,0.00,CLR,,0.16,WeatherDisplay:10.37,2013-12-09 11:21:00,
2013-12-09 05:26:00,48.9,48.1,30.20,NE,42,0.0,0.0,97,0.00,CLR,,0.16,WeatherDisplay:10.37,2013-12-09 11:26:00,
2013-12-09 05:31:00,48.9,48.1,30.20,NE,42,0.0,0.0,97,0.00,CLR,,0.16,WeatherDisplay:10.37,2013-12-09 11:31:00,
2013-12-09 05:36:00,49.1,48.3,30.20,NE,42,0.0,0.0,97,0.00,CLR,,0.16,WeatherDisplay:10.37,2013-12-09 11:36:00,
2013-12-09 05:41:00,48.9,48.1,30.20,NE,42,0.0,0.0,97,0.00,CLR,,0.16,WeatherDisplay:10.37,2013-12-09 11:41:00,
2013-12-09 05:46:00,49.1,48.3,30.20,NE,42,0.0,0.0,97,0.00,CLR,,0.16,WeatherDisplay:10.37,2013-12-09 11:46:00,
2013-12-09 05:51:00,49.1,48.3,30.20,NE,42,0.0,0.0,97,0.00,CLR,,0.16,WeatherDisplay:10.37,2013-12-09 11:51:00,
2013-12-09 05:56:00,49.1,48.3,30.20,NE,42,0.0,0.0,97,0.00,CLR,,0.16,WeatherDisplay:10.37,2013-12-09 11:56:00,
2013-12-09 06:01:00,49.1,48.3,30.22,NE,42,0.0,0.0,97,0.00,CLR,,0.16,WeatherDisplay:10.37,2013-12-09 12:01:00,
2013-12-09 06:06:00,49.1,48.3,30.21,NE,42,1.2,1.2,97,0.01,RA,,0.17,WeatherDisplay:10.37,2013-12-09 12:06:00,
2013-12-09 06:11:00,49.1,48.3,30.22,NE,42,0.0,0.0,97,0.01,RA,,0.17,WeatherDisplay:10.37,2013-12-09 12:11:00,
2013-12-09 06:16:00,49.1,48.3,30.22,NE,42,0.0,0.0,97,0.01,CLR,,0.17,WeatherDisplay:10.37,2013-12-09 12:16:00,
2013-12-09 06:21:00,49.1,48.3,30.22,NE,42,0.0,0.0,97,0.01,CLR,,0.17,WeatherDisplay:10.37,2013-12-09 12:21:00,
2013-12-09 06:26:00,48.9,48.1,30.22,NNE,22,3.5,3.5,97,0.01,CLR,,0.17,WeatherDisplay:10.37,2013-12-09 12:26:00,
2013-12-09 06:31:00,48.8,48.0,30.22,NW,326,1.0,1.0,97,0.01,CLR,,0.17,WeatherDisplay:10.37,2013-12-09 12:31:00,
2013-12-09 06:36:00,48.5,47.7,30.22,WNW,296,3.5,3.5,97,0.01,CLR,,0.17,WeatherDisplay:10.37,2013-12-09 12:36:00,
2013-12-09 06:41:00,48.5,47.7,30.22,NW,306,3.5,3.5,97,0.01,CLR,,0.17,WeatherDisplay:10.37,2013-12-09 12:41:00,
2013-12-09 06:46:00,48.3,47.5,30.22,North,355,3.5,3.5,97,0.01,CLR,,0.17,WeatherDisplay:10.37,2013-12-09 12:46:00,
2013-12-09 06:51:00,48.2,47.4,30.22,North,360,2.3,2.3,97,0.01,CLR,,0.17,WeatherDisplay:10.37,2013-12-09 12:51:00,
2013-12-09 06:56:00,48.0,47.2,30.22,NNE,28,3.5,3.5,97,0.01,CLR,,0.17,WeatherDisplay:10.37,2013-12-09 12:56:00,
2013-12-09 07:01:00,47.9,47.1,30.23,WSW,254,4.0,4.0,97,0.01,CLR,,0.17,WeatherDisplay:10.37,2013-12-09 13:01:00,
2013-12-09 07:06:00,47.7,46.6,30.23,WSW,240,3.5,3.5,96,0.00,CLR,,0.17,WeatherDisplay:10.37,2013-12-09 13:06:00,
2013-12-09 07:11:00,47.7,46.1,30.23,NNE,12,0.0,0.0,94,0.00,CLR,,0.17,WeatherDisplay:10.37,2013-12-09 13:11:00,
2013-12-09 07:16:00,47.7,45.8,30.23,NNE,13,3.5,3.5,93,0.00,CLR,,0.17,WeatherDisplay:10.37,2013-12-09 13:16:00,
2013-12-09 07:21:00,47.6,45.4,30.23,NNE,13,2.3,2.3,92,0.00,CLR,,0.17,WeatherDisplay:10.37,2013-12-09 13:21:00,
2013-12-09 07:26:00,47.6,45.4,30.23,NNE,13,0.0,0.0,92,0.00,CLR,,0.17,WeatherDisplay:10.37,2013-12-09 13:26:00,
2013-12-09 07:31:00,47.6,45.1,30.23,NNE,12,2.3,2.3,91,0.00,CLR,,0.17,WeatherDisplay:10.37,2013-12-09 13:31:00,
2013-12-09 07:36:00,47.6,45.1,30.23,NNE,12,0.0,0.0,91,0.00,CLR,,0.17,WeatherDisplay:10.37,2013-12-09 13:36:00,
2013-12-09 07:41:00,47.4,44.6,30.24,NNE,15,0.0,0.0,90,0.00,CLR,,0.17,WeatherDisplay:10.37,2013-12-09 13:41:00,
2013-12-09 07:46:00,47.4,44.3,30.23,NNE,15,0.0,0.0,89,0.00,CLR,,0.17,WeatherDisplay:10.37,2013-12-09 13:46:00,
2013-12-09 07:51:00,47.6,44.5,30.23,NE,37,2.3,2.3,89,0.00,CLR,,0.17,WeatherDisplay:10.37,2013-12-09 13:51:00,
2013-12-09 07:56:00,47.6,44.5,30.24,NNE,29,4.6,4.6,89,0.00,CLR,,0.17,WeatherDisplay:10.37,2013-12-09 13:56:00,
2013-12-09 08:01:00,47.6,44.2,30.24,NNE,29,1.2,0.0,88,0.00,CLR,,0.17,WeatherDisplay:10.37,2013-12-09 14:01:00,
2013-12-09 08:06:00,47.7,44.3,30.24,NNE,29,0.0,0.0,88,0.00,CLR,,0.17,WeatherDisplay:10.37,2013-12-09 14:06:00,
2013-12-09 08:11:00,47.9,44.2,30.24,NNE,29,0.0,0.0,87,0.00,CLR,,0.17,WeatherDisplay:10.37,2013-12-09 14:11:00,
2013-12-09 08:16:00,48.0,44.6,30.24,NNE,29,2.3,2.3,88,0.00,CLR,,0.17,WeatherDisplay:10.37,2013-12-09 14:16:00,
2013-12-09 08:21:00,48.0,44.3,30.24,NNE,29,0.0,0.0,87,0.00,CLR,,0.17,WeatherDisplay:10.37,2013-12-09 14:21:00,
2013-12-09 08:26:00,48.0,44.3,30.25,NE,45,4.0,4.0,87,0.00,CLR,,0.17,WeatherDisplay:10.37,2013-12-09 14:26:00,
2013-12-09 08:31:00,48.0,44.0,30.25,NE,46,4.6,4.6,86,0.00,CLR,,0.17,WeatherDisplay:10.37,2013-12-09 14:31:00,
2013-12-09 08:36:00,48.2,44.5,30.25,NE,39,0.0,0.0,87,0.00,CLR,,0.17,WeatherDisplay:10.37,2013-12-09 14:36:00,
2013-12-09 08:41:00,48.3,44.3,30.25,NE,39,0.0,0.0,86,0.00,CLR,,0.17,WeatherDisplay:10.37,2013-12-09 14:41:00,
2013-12-09 08:46:00,48.3,44.3,30.25,NE,39,0.0,0.0,86,0.00,CLR,,0.17,WeatherDisplay:10.37,2013-12-09 14:46:00,
2013-12-09 08:51:00,48.5,44.5,30.25,NE,39,0.0,0.0,86,0.00,CLR,,0.17,WeatherDisplay:10.37,2013-12-09 14:51:00,
2013-12-09 08:56:00,48.6,44.0,30.25,NE,39,0.0,0.0,84,0.00,CLR,,0.17,WeatherDisplay:10.37,2013-12-09 14:56:00,
2013-12-09 09:01:00,48.8,44.5,30.25,NE,39,0.0,0.0,85,0.00,CLR,,0.17,WeatherDisplay:10.37,2013-12-09 15:01:00,
2013-12-09 09:06:00,49.1,45.1,30.26,NE,39,0.0,0.0,86,0.00,CLR,,0.17,WeatherDisplay:10.37,2013-12-09 15:06:00,
2013-12-09 09:11:00,49.2,45.2,30.25,NE,39,0.0,0.0,86,0.00,CLR,,0.17,WeatherDisplay:10.37,2013-12-09 15:11:00,
2013-12-09 09:16:00,49.4,45.4,30.26,NE,39,0.0,0.0,86,0.00,CLR,,0.17,WeatherDisplay:10.37,2013-12-09 15:16:00,
2013-12-09 09:21:00,49.5,44.9,30.26,NE,39,0.0,0.0,84,0.00,CLR,,0.17,WeatherDisplay:10.37,2013-12-09 15:21:00,
2013-12-09 09:26:00,49.5,44.6,30.26,NE,39,1.2,1.2,83,0.00,RA,,0.17,WeatherDisplay:10.37,2013-12-09 15:26:00,
2013-12-09 09:31:00,49.6,45.0,30.26,NE,39,0.0,0.0,84,0.00,RA,,0.17,WeatherDisplay:10.37,2013-12-09 15:31:00,
2013-12-09 09:36:00,49.8,45.5,30.26,NE,39,0.0,0.0,85,0.00,CLR,,0.17,WeatherDisplay:10.37,2013-12-09 15:36:00,
2013-12-09 09:41:00,50.1,45.5,30.26,NE,39,0.0,0.0,84,0.00,CLR,,0.17,WeatherDisplay:10.37,2013-12-09 15:41:00,
2013-12-09 09:46:00,50.1,45.1,30.26,NE,39,0.0,0.0,83,0.00,CLR,,0.17,WeatherDisplay:10.37,2013-12-09 15:46:00,
2013-12-09 09:51:00,50.2,45.2,30.26,NE,39,0.0,0.0,83,0.00,CLR,,0.17,WeatherDisplay:10.37,2013-12-09 15:51:00,
2013-12-09 09:56:00,50.4,45.4,30.26,NE,39,0.0,0.0,83,0.00,CLR,,0.17,WeatherDisplay:10.37,2013-12-09 15:56:00,
2013-12-09 10:01:00,50.5,45.5,30.26,NE,39,0.0,0.0,83,0.00,CLR,,0.17,WeatherDisplay:10.37,2013-12-09 16:01:00,
2013-12-09 10:06:00,50.7,45.4,30.26,NE,39,1.2,1.2,82,0.00,CLR,,0.17,WeatherDisplay:10.37,2013-12-09 16:06:00,
2013-12-09 10:11:00,50.7,45.7,30.26,NE,39,0.0,0.0,83,0.00,CLR,,0.17,WeatherDisplay:10.37,2013-12-09 16:11:00,
2013-12-09 10:17:00,50.8,46.1,30.26,NE,39,3.5,3.5,84,0.00,CLR,,0.17,WeatherDisplay:10.37,2013-12-09 16:17:00,
2013-12-09 10:22:00,51.0,46.0,30.26,NE,39,2.3,0.0,83,0.00,CLR,,0.17,WeatherDisplay:10.37,2013-12-09 16:22:00,
2013-12-09 10:27:00,51.0,46.0,30.26,NE,39,2.3,2.3,83,0.00,CLR,,0.17,WeatherDisplay:10.37,2013-12-09 16:27:00,
2013-12-09 10:32:00,51.3,46.9,30.26,NE,39,1.2,1.2,85,0.00,CLR,,0.17,WeatherDisplay:10.37,2013-12-09 16:32:00,
2013-12-09 10:37:00,51.3,46.6,30.26,NE,39,0.0,0.0,84,0.00,CLR,,0.17,WeatherDisplay:10.37,2013-12-09 16:37:00,
2013-12-09 11:56:00,52.0,47.3,30.23,NE,39,2.3,2.3,84,0.00,CLR,,0.17,WeatherDisplay:10.37,2013-12-09 17:56:00,
2013-12-09 12:01:00,51.9,46.9,30.23,NE,39,0.0,0.0,83,0.00,CLR,,0.17,WeatherDisplay:10.37,2013-12-09 18:01:00,
2013-12-09 12:06:00,51.7,46.7,30.23,NE,39,0.0,0.0,83,0.00,CLR,,0.17,WeatherDisplay:10.37,2013-12-09 18:06:00,
2013-12-09 12:11:00,51.6,46.6,30.23,NE,39,1.2,0.0,83,0.00,CLR,,0.17,WeatherDisplay:10.37,2013-12-09 18:11:00,
2013-12-09 12:16:00,51.4,46.7,30.23,NE,39,0.0,0.0,84,0.00,CLR,,0.17,WeatherDisplay:10.37,2013-12-09 18:16:00,
2013-12-09 12:21:00,51.4,46.7,30.23,NE,39,0.0,0.0,84,0.00,CLR,,0.17,WeatherDisplay:10.37,2013-12-09 18:21:00,
2013-12-09 12:26:00,51.4,46.7,30.22,SSE,165,1.2,0.0,84,0.00,CLR,,0.17,WeatherDisplay:10.37,2013-12-09 18:26:00,
2013-12-09 12:31:00,51.3,46.6,30.22,SSE,165,0.0,0.0,84,0.00,CLR,,0.17,WeatherDisplay:10.37,2013-12-09 18:31:00,
2013-12-09 12:36:00,51.6,47.2,30.22,SSE,165,0.0,0.0,85,0.00,CLR,,0.17,WeatherDisplay:10.37,2013-12-09 18:36:00,
2013-12-09 12:41:00,51.6,46.9,30.21,SSE,162,1.2,1.2,84,0.00,CLR,,0.17,WeatherDisplay:10.37,2013-12-09 18:41:00,
2013-12-09 12:46:00,51.4,46.7,30.20,SSE,161,2.3,2.3,84,0.00,CLR,,0.17,WeatherDisplay:10.37,2013-12-09 18:46:00,
2013-12-09 12:51:00,51.4,46.7,30.20,SSE,160,0.0,0.0,84,0.00,CLR,,0.17,WeatherDisplay:10.37,2013-12-09 18:51:00,
2013-12-09 12:56:00,51.4,46.7,30.20,SSE,160,1.2,0.0,84,0.00,CLR,,0.17,WeatherDisplay:10.37,2013-12-09 18:56:00,
2013-12-09 13:02:00,51.4,47.0,30.20,SSE,161,0.0,0.1,85,0.00,CLR,,0.17,WeatherDisplay:10.37,2013-12-09 19:02:00,
2013-12-09 13:07:00,51.4,46.7,30.20,SSE,160,1.2,0.0,84,0.00,CLR,,0.17,WeatherDisplay:10.37,2013-12-09 19:07:00,
2013-12-09 13:12:00,51.4,46.7,30.20,SSE,163,1.2,0.0,84,0.00,CLR,,0.17,WeatherDisplay:10.37,2013-12-09 19:12:00,
2013-12-09 13:17:00,51.6,46.9,30.20,SSE,163,0.0,0.0,84,0.00,CLR,,0.17,WeatherDisplay:10.37,2013-12-09 19:17:00,
2013-12-09 13:22:00,51.7,47.0,30.20,SSE,163,0.0,0.0,84,0.00,CLR,,0.17,WeatherDisplay:10.37,2013-12-09 19:22:00,
2013-12-09 13:27:00,51.9,47.2,30.20,SSW,200,0.0,0.0,84,0.00,CLR,,0.17,WeatherDisplay:10.37,2013-12-09 19:27:00,
2013-12-09 13:32:00,51.9,46.9,30.20,SSW,202,2.3,2.3,83,0.00,CLR,,0.17,WeatherDisplay:10.37,2013-12-09 19:32:00,
2013-12-09 13:37:00,51.9,46.9,30.20,SSW,202,0.0,0.0,83,0.00,CLR,,0.17,WeatherDisplay:10.37,2013-12-09 19:37:00,
2013-12-09 13:42:00,52.0,47.0,30.20,SSW,202,0.0,0.0,83,0.00,CLR,,0.17,WeatherDisplay:10.37,2013-12-09 19:42:00,
2013-12-09 13:47:00,52.2,47.2,30.20,SSW,202,0.0,0.0,83,0.00,CLR,,0.17,WeatherDisplay:10.37,2013-12-09 19:47:00,
2013-12-09 13:52:00,52.2,46.9,30.21,West,262,0.0,0.0,82,0.00,CLR,,0.17,WeatherDisplay:10.37,2013-12-09 19:52:00,
2013-12-09 13:57:00,52.0,46.7,30.20,South,186,0.0,0.0,82,0.00,CLR,,0.17,WeatherDisplay:10.37,2013-12-09 19:57:00,
2013-12-09 14:02:00,52.2,46.9,30.21,South,187,0.0,0.0,82,0.00,CLR,,0.17,WeatherDisplay:10.37,2013-12-09 20:02:00,
2013-12-09 14:07:00,52.3,47.3,30.21,South,187,0.0,0.0,83,0.00,CLR,,0.17,WeatherDisplay:10.37,2013-12-09 20:07:00,
2013-12-09 14:12:00,52.3,46.6,30.21,South,186,0.0,0.0,81,0.00,CLR,,0.17,WeatherDisplay:10.37,2013-12-09 20:12:00,
2013-12-09 14:17:00,52.5,46.8,30.21,South,187,0.0,0.0,81,0.00,CLR,,0.17,WeatherDisplay:10.37,2013-12-09 20:17:00,
2013-12-09 14:22:00,52.6,47.3,30.21,South,187,0.0,0.0,82,0.00,CLR,,0.17,WeatherDisplay:10.37,2013-12-09 20:22:00,
2013-12-09 14:27:00,52.6,47.6,30.21,SW,232,0.0,0.0,83,0.00,CLR,,0.17,WeatherDisplay:10.37,2013-12-09 20:27:00,
2013-12-09 14:32:00,52.8,47.8,30.21,SW,233,1.2,0.0,83,0.00,CLR,,0.17,WeatherDisplay:10.37,2013-12-09 20:32:00,
2013-12-09 14:37:00,52.8,47.1,30.21,SW,233,0.0,0.0,81,0.00,CLR,,0.17,WeatherDisplay:10.37,2013-12-09 20:37:00,
2013-12-09 14:42:00,52.8,46.5,30.21,NW,325,5.0,5.0,79,0.00,CLR,,0.17,WeatherDisplay:10.37,2013-12-09 20:42:00,
2013-12-09 14:47:00,52.3,45.6,30.22,NNW,342,3.5,3.5,78,0.00,CLR,,0.17,WeatherDisplay:10.37,2013-12-09 20:47:00,
2013-12-09 14:52:00,51.3,45.0,30.22,NW,325,5.8,5.8,79,0.00,CLR,,0.17,WeatherDisplay:10.37,2013-12-09 20:52:00,
2013-12-09 14:57:00,50.2,43.9,30.22,WNW,302,5.8,5.8,79,0.00,CLR,,0.17,WeatherDisplay:10.37,2013-12-09 20:57:00,
2013-12-09 15:02:00,49.4,43.5,30.22,North,349,3.5,3.5,80,0.00,CLR,,0.17,WeatherDisplay:10.37,2013-12-09 21:02:00,
2013-12-09 15:07:00,48.6,43.0,30.22,NW,326,3.0,3.0,81,0.00,CLR,,0.17,WeatherDisplay:10.37,2013-12-09 21:07:00,
2013-12-09 15:12:00,48.2,43.0,30.22,NW,308,4.6,4.6,82,0.00,CLR,,0.17,WeatherDisplay:10.37,2013-12-09 21:12:00,
2013-12-09 15:17:00,47.7,42.2,30.22,NW,320,5.8,5.8,81,0.00,CLR,,0.17,WeatherDisplay:10.37,2013-12-09 21:17:00,
2013-12-09 15:22:00,47.4,42.2,30.22,West,263,6.9,6.9,82,0.00,CLR,,0.17,WeatherDisplay:10.37,2013-12-09 21:22:00,
2013-12-09 15:27:00,47.0,41.8,30.23,NNW,331,3.5,3.5,82,0.00,CLR,,0.17,WeatherDisplay:10.37,2013-12-09 21:27:00,
2013-12-09 15:32:00,46.7,41.8,30.23,NNW,334,1.2,0.0,83,0.00,CLR,,0.17,WeatherDisplay:10.37,2013-12-09 21:32:00,
2013-12-09 15:37:00,46.5,41.6,30.23,WNW,292,7.0,7.0,83,0.00,CLR,,0.17,WeatherDisplay:10.37,2013-12-09 21:37:00,
2013-12-09 15:42:00,46.2,41.6,30.24,North,10,3.5,3.5,84,0.00,CLR,,0.17,WeatherDisplay:10.37,2013-12-09 21:42:00,
2013-12-09 15:47:00,46.0,41.4,30.24,NW,317,6.9,6.9,84,0.00,CLR,,0.17,WeatherDisplay:10.37,2013-12-09 21:47:00,
2013-12-09 15:52:00,45.7,41.1,30.24,WNW,290,5.8,5.8,84,0.00,CLR,,0.17,WeatherDisplay:10.37,2013-12-09 21:52:00,
2013-12-09 15:57:00,45.5,41.3,30.24,NNW,346,1.2,0.0,85,0.00,CLR,,0.17,WeatherDisplay:10.37,2013-12-09 21:57:00,
2013-12-09 16:02:00,45.4,41.2,30.24,West,279,5.8,5.8,85,0.00,CLR,,0.17,WeatherDisplay:10.37,2013-12-09 22:02:00,
2013-12-09 16:07:00,45.4,41.2,30.25,NNW,336,3.5,0.0,85,0.00,CLR,,0.17,WeatherDisplay:10.37,2013-12-09 22:07:00,
2013-12-09 16:12:00,45.4,41.2,30.25,North,350,1.2,0.0,85,0.00,CLR,,0.17,WeatherDisplay:10.37,2013-12-09 22:12:00,
2013-12-09 16:17:00,45.4,41.2,30.25,North,355,0.0,0.0,85,0.00,CLR,,0.17,WeatherDisplay:10.37,2013-12-09 22:17:00,
2013-12-09 16:22:00,45.4,41.2,30.26,North,5,4.6,4.6,85,0.00,CLR,,0.17,WeatherDisplay:10.37,2013-12-09 22:22:00,
2013-12-09 16:27:00,45.2,40.7,30.26,NW,314,1.2,1.2,84,0.00,CLR,,0.17,WeatherDisplay:10.37,2013-12-09 22:27:00,
2013-12-09 16:32:00,45.2,40.7,30.26,North,360,0.0,0.0,84,0.00,CLR,,0.17,WeatherDisplay:10.37,2013-12-09 22:32:00,
2013-12-09 16:37:00,45.1,40.6,30.26,North,360,0.0,0.0,84,0.00,CLR,,0.17,WeatherDisplay:10.37,2013-12-09 22:37:00,
2013-12-09 16:42:00,45.1,40.6,30.26,North,360,1.2,1.2,84,0.00,CLR,,0.17,WeatherDisplay:10.37,2013-12-09 22:42:00,
2013-12-09 16:47:00,44.9,40.4,30.26,NNW,336,5.8,5.8,84,0.00,CLR,,0.17,WeatherDisplay:10.37,2013-12-09 22:47:00,
2013-12-09 16:52:00,44.9,40.4,30.26,NNW,342,4.0,4.0,84,0.00,CLR,,0.17,WeatherDisplay:10.37,2013-12-09 22:52:00,
2013-12-09 16:57:00,44.8,40.6,30.26,NNE,12,0.0,0.0,85,0.00,CLR,,0.17,WeatherDisplay:10.37,2013-12-09 22:57:00,
2013-12-09 17:02:00,44.6,40.1,30.25,North,360,3.5,3.5,84,0.00,CLR,,0.17,WeatherDisplay:10.37,2013-12-09 23:02:00,
2013-12-09 17:07:00,44.5,40.0,30.25,NW,309,4.0,4.0,84,0.00,CLR,,0.17,WeatherDisplay:10.37,2013-12-09 23:07:00,
2013-12-09 17:12:00,44.3,39.8,30.25,NNW,348,5.8,5.8,84,0.00,CLR,,0.17,WeatherDisplay:10.37,2013-12-09 23:12:00,
2013-12-09 17:17:00,44.2,39.4,30.25,North,355,2.3,2.3,83,0.00,CLR,,0.17,WeatherDisplay:10.37,2013-12-09 23:17:00,
2013-12-09 17:22:00,44.1,39.6,30.25,North,355,2.3,2.3,84,0.00,CLR,,0.17,WeatherDisplay:10.37,2013-12-09 23:22:00,
2013-12-09 17:27:00,43.9,39.4,30.25,WNW,296,2.0,2.0,84,0.00,CLR,,0.17,WeatherDisplay:10.37,2013-12-09 23:27:00,
2013-12-09 17:32:00,43.8,39.3,30.25,NNE,27,2.3,2.3,84,0.00,CLR,,0.17,WeatherDisplay:10.37,2013-12-09 23:32:00,
2013-12-09 17:37:00,43.6,39.1,30.26,WNW,303,4.6,4.6,84,0.00,CLR,,0.17,WeatherDisplay:10.37,2013-12-09 23:37:00,
2013-12-09 17:42:00,43.6,39.1,30.25,North,5,3.5,3.5,84,0.00,CLR,,0.17,WeatherDisplay:10.37,2013-12-09 23:42:00,
2013-12-09 17:47:00,43.5,39.0,30.25,NNW,346,2.3,2.3,84,0.00,CLR,,0.17,WeatherDisplay:10.37,2013-12-09 23:47:00,
2013-12-09 17:52:00,43.5,39.0,30.25,NNE,26,1.2,0.0,84,0.00,CLR,,0.17,WeatherDisplay:10.37,2013-12-09 23:52:00,
2013-12-09 17:57:00,43.5,39.0,30.25,NE,44,3.5,3.5,84,0.00,CLR,,0.17,WeatherDisplay:10.37,2013-12-09 23:57:00,
2013-12-09 18:02:00,43.3,38.8,30.25,NE,44,2.3,0.0,84,0.00,CLR,,0.17,WeatherDisplay:10.37,2013-12-10 00:02:00,
2013-12-09 18:07:00,43.3,38.8,30.26,NE,44,1.2,1.2,84,0.00,CLR,,0.17,WeatherDisplay:10.37,2013-12-10 00:07:00,
2013-12-09 18:12:00,43.3,38.8,30.26,NE,44,0.0,0.0,84,0.00,CLR,,0.17,WeatherDisplay:10.37,2013-12-10 00:12:00,
2013-12-09 18:17:00,43.3,38.8,30.26,NE,44,0.0,0.0,84,0.00,CLR,,0.17,WeatherDisplay:10.37,2013-12-10 00:17:00,
2013-12-09 18:22:00,43.3,38.5,30.25,NE,44,3.5,3.5,83,0.00,CLR,,0.17,WeatherDisplay:10.37,2013-12-10 00:22:00,
2013-12-09 18:27:00,43.3,38.8,30.25,NE,44,0.0,0.0,84,0.00,CLR,,0.17,WeatherDisplay:10.37,2013-12-10 00:27:00,
2013-12-09 18:32:00,43.2,38.7,30.25,NE,44,2.3,2.3,84,0.00,CLR,,0.17,WeatherDisplay:10.37,2013-12-10 00:32:00,
2013-12-09 18:37:00,43.1,38.3,30.25,NE,44,2.0,2.0,83,0.00,CLR,,0.17,WeatherDisplay:10.37,2013-12-10 00:37:00,
2013-12-09 18:42:00,43.1,38.6,30.24,NE,44,0.0,0.0,84,0.00,CLR,,0.17,WeatherDisplay:10.37,2013-12-10 00:42:00,
2013-12-09 18:47:00,42.9,38.4,30.24,NE,44,0.0,0.0,84,0.00,CLR,,0.17,WeatherDisplay:10.37,2013-12-10 00:47:00,
2013-12-09 18:52:00,42.9,38.7,30.24,NNE,31,1.2,1.2,85,0.00,CLR,,0.17,WeatherDisplay:10.37,2013-12-10 00:52:00,
2013-12-09 18:57:00,42.9,38.7,30.24,NNE,24,2.3,0.0,85,0.00,CLR,,0.17,WeatherDisplay:10.37,2013-12-10 00:57:00,
2013-12-09 19:02:00,43.1,38.6,30.24,NNE,24,2.3,2.3,84,0.00,CLR,,0.17,WeatherDisplay:10.37,2013-12-10 01:02:00,
2013-12-09 19:07:00,43.1,38.6,30.24,NNE,24,3.5,3.5,84,0.00,CLR,,0.17,WeatherDisplay:10.37,2013-12-10 01:07:00,
2013-12-09 19:12:00,43.1,38.9,30.24,NNE,24,0.0,0.0,85,0.00,CLR,,0.17,WeatherDisplay:10.37,2013-12-10 01:12:00,
2013-12-09 19:17:00,43.1,38.9,30.23,NE,36,2.3,2.3,85,0.00,CLR,,0.17,WeatherDisplay:10.37,2013-12-10 01:17:00,
2013-12-09 19:22:00,43.1,38.9,30.23,NNE,28,4.0,4.0,85,0.00,CLR,,0.17,WeatherDisplay:10.37,2013-12-10 01:22:00,
2013-12-09 19:27:00,42.9,38.7,30.23,NNE,26,3.5,3.5,85,0.00,CLR,,0.17,WeatherDisplay:10.37,2013-12-10 01:27:00,
2013-12-09 19:32:00,42.8,38.6,30.23,NE,39,2.3,2.3,85,0.00,CLR,,0.17,WeatherDisplay:10.37,2013-12-10 01:32:00,
2013-12-09 19:37:00,42.6,38.4,30.23,North,5,0.0,0.0,85,0.00,CLR,,0.17,WeatherDisplay:10.37,2013-12-10 01:37:00,
2013-12-09 19:42:00,42.5,38.3,30.23,ENE,78,3.5,3.5,85,0.00,CLR,,0.17,WeatherDisplay:10.37,2013-12-10 01:42:00,
2013-12-09 19:47:00,42.3,38.1,30.23,North,5,3.5,3.5,85,0.00,CLR,,0.17,WeatherDisplay:10.37,2013-12-10 01:47:00,
2013-12-09 19:52:00,42.3,38.1,30.23,NE,55,1.2,1.2,85,0.00,CLR,,0.17,WeatherDisplay:10.37,2013-12-10 01:52:00,
2013-12-09 19:57:00,42.2,38.3,30.23,NNE,25,2.3,2.3,86,0.00,CLR,,0.17,WeatherDisplay:10.37,2013-12-10 01:57:00,
2013-12-09 20:02:00,42.2,38.3,30.23,NNE,25,0.0,0.0,86,0.00,CLR,,0.17,WeatherDisplay:10.37,2013-12-10 02:02:00,
2013-12-09 20:07:00,42.1,38.2,30.23,ENE,71,4.0,4.0,86,0.00,CLR,,0.17,WeatherDisplay:10.37,2013-12-10 02:07:00,
2013-12-09 20:12:00,42.1,38.2,30.23,NE,53,0.0,0.0,86,0.00,CLR,,0.17,WeatherDisplay:10.37,2013-12-10 02:12:00,
2013-12-09 20:17:00,42.1,38.5,30.23,NE,53,3.5,3.5,87,0.00,CLR,,0.17,WeatherDisplay:10.37,2013-12-10 02:17:00,
2013-12-09 20:22:00,41.9,38.3,30.22,NE,55,2.3,2.3,87,0.00,CLR,,0.17,WeatherDisplay:10.37,2013-12-10 02:22:00,
2013-12-09 20:27:00,41.9,38.3,30.21,NE,53,3.5,3.5,87,0.00,CLR,,0.17,WeatherDisplay:10.37,2013-12-10 02:27:00,
2013-12-09 20:32:00,41.8,38.2,30.21,NE,53,2.3,2.3,87,0.00,CLR,,0.17,WeatherDisplay:10.37,2013-12-10 02:32:00,
2013-12-09 20:37:00,41.8,38.2,30.20,NE,46,4.0,4.0,87,0.00,CLR,,0.17,WeatherDisplay:10.37,2013-12-10 02:37:00,
2013-12-09 20:42:00,41.6,38.0,30.19,NNE,28,3.5,3.5,87,0.00,CLR,,0.17,WeatherDisplay:10.37,2013-12-10 02:42:00,
2013-12-09 20:47:00,41.5,37.9,30.20,ENE,76,0.0,0.0,87,0.00,CLR,,0.17,WeatherDisplay:10.37,2013-12-10 02:47:00,
2013-12-09 20:52:00,41.5,37.9,30.19,ENE,58,1.2,1.2,87,0.00,CLR,,0.17,WeatherDisplay:10.37,2013-12-10 02:52:00,
2013-12-09 20:57:00,41.3,37.7,30.19,ENE,61,2.3,0.0,87,0.00,CLR,,0.17,WeatherDisplay:10.37,2013-12-10 02:57:00,
2013-12-09 21:02:00,41.2,37.9,30.18,ESE,113,3.5,3.5,88,0.00,CLR,,0.17,WeatherDisplay:10.37,2013-12-10 03:02:00,
2013-12-09 21:07:00,41.1,37.8,30.17,NE,44,0.0,0.0,88,0.00,CLR,,0.17,WeatherDisplay:10.37,2013-12-10 03:07:00,
2013-12-09 21:12:00,41.1,37.8,30.17,NNE,28,3.5,3.5,88,0.00,CLR,,0.17,WeatherDisplay:10.37,2013-12-10 03:12:00,
2013-12-09 21:17:00,40.9,37.6,30.16,NNE,23,3.0,3.0,88,0.00,CLR,,0.17,WeatherDisplay:10.37,2013-12-10 03:17:00,
2013-12-09 21:22:00,40.8,37.5,30.17,NNE,29,3.5,3.5,88,0.00,CLR,,0.17,WeatherDisplay:10.37,2013-12-10 03:22:00,
2013-12-09 21:27:00,40.6,37.3,30.18,NE,40,2.3,2.3,88,0.00,CLR,,0.17,WeatherDisplay:10.37,2013-12-10 03:27:00,
2013-12-09 21:32:00,40.6,37.3,30.19,NE,54,0.0,0.0,88,0.00,CLR,,0.17,WeatherDisplay:10.37,2013-12-10 03:32:00,
2013-12-09 21:37:00,40.6,37.3,30.21,NE,55,0.0,0.0,88,0.00,CLR,,0.17,WeatherDisplay:10.37,2013-12-10 03:37:00,
2013-12-09 21:42:00,40.6,37.3,30.21,NE,55,0.0,0.0,88,0.00,CLR,,0.17,WeatherDisplay:10.37,2013-12-10 03:42:00,
2013-12-09 21:47:00,40.8,37.8,30.21,NE,55,0.0,0.0,89,0.00,CLR,,0.17,WeatherDisplay:10.37,2013-12-10 03:47:00,
2013-12-09 21:52:00,40.8,37.8,30.21,NE,55,0.0,0.0,89,0.01,RA,,0.18,WeatherDisplay:10.37,2013-12-10 03:52:00,
2013-12-09 21:57:00,40.8,38.1,30.19,NE,55,0.0,0.0,90,0.01,RA,,0.18,WeatherDisplay:10.37,2013-12-10 03:57:00,
2013-12-09 22:02:00,40.8,38.1,30.19,NE,54,2.3,2.3,90,0.01,CLR,,0.19,WeatherDisplay:10.37,2013-12-10 04:02:00,
2013-12-09 22:07:00,40.8,38.1,30.20,NE,54,1.2,0.0,90,0.02,RA,,0.20,WeatherDisplay:10.37,2013-12-10 04:07:00,
2013-12-09 22:12:00,40.5,37.8,30.20,NE,55,0.0,0.0,90,0.04,RA,,0.21,WeatherDisplay:10.37,2013-12-10 04:12:00,
2013-12-09 22:17:00,40.5,38.1,30.20,NE,54,3.5,3.5,91,0.05,RA,,0.22,WeatherDisplay:10.37,2013-12-10 04:17:00,
2013-12-09 22:22:00,40.3,37.9,30.19,NE,55,0.0,0.0,91,0.06,RA,,0.23,WeatherDisplay:10.37,2013-12-10 04:22:00,
2013-12-09 22:27:00,40.2,38.1,30.19,NE,55,0.0,0.0,92,0.07,RA,,0.24,WeatherDisplay:10.37,2013-12-10 04:27:00,
2013-12-09 22:32:00,40.2,38.1,30.18,NNE,23,3.5,3.5,92,0.07,RA,,0.24,WeatherDisplay:10.37,2013-12-10 04:32:00,
2013-12-09 22:37:00,40.2,38.1,30.18,NE,34,5.8,5.8,92,0.07,,,0.24,WeatherDisplay:10.37,2013-12-10 04:37:00,
2013-12-09 22:42:00,40.1,38.0,30.17,NNE,29,3.5,0.0,92,0.07,CLR,,0.24,WeatherDisplay:10.37,2013-12-10 04:42:00,
2013-12-09 22:47:00,40.1,38.2,30.18,NE,52,3.5,3.5,93,0.07,CLR,,0.24,WeatherDisplay:10.37,2013-12-10 04:47:00,
2013-12-09 22:52:00,40.1,38.2,30.17,NE,51,1.2,0.0,93,0.06,CLR,,0.24,WeatherDisplay:10.37,2013-12-10 04:52:00,
2013-12-09 22:57:00,39.9,38.0,30.16,NE,44,4.6,4.6,93,0.06,CLR,,0.24,WeatherDisplay:10.37,2013-12-10 04:57:00,
2013-12-09 23:01:00,39.8,37.9,30.17,NNE,19,4.6,4.6,93,0.06,CLR,,0.24,WeatherDisplay:10.37,2013-12-10 05:01:00,
2013-12-09 23:02:00,39.8,37.9,30.16,NNE,19,4.6,4.6,93,0.06,CLR,,0.24,WeatherDisplay:10.37,2013-12-10 05:02:00,
2013-12-09 23:03:00,39.8,37.9,30.16,NNE,19,2.3,2.3,93,0.06,CLR,,0.24,WeatherDisplay:10.37,2013-12-10 05:03:00,
2013-12-09 23:08:00,39.6,37.7,30.16,NE,54,0.0,0.0,93,0.05,RA,,0.25,WeatherDisplay:10.37,2013-12-10 05:08:00,
2013-12-09 23:13:00,39.6,37.7,30.15,NE,52,2.3,2.3,93,0.04,RA,,0.25,WeatherDisplay:10.37,2013-12-10 05:13:00,
2013-12-09 23:18:00,39.5,37.6,30.15,ENE,57,3.5,3.5,93,0.03,CLR,,0.25,WeatherDisplay:10.37,2013-12-10 05:18:00,
2013-12-09 23:23:00,39.5,37.6,30.16,NE,42,0.0,0.0,93,0.02,CLR,,0.25,WeatherDisplay:10.37,2013-12-10 05:23:00,
2013-12-09 23:28:00,39.5,37.6,30.16,NE,42,2.0,2.0,93,0.01,CLR,,0.25,WeatherDisplay:10.37,2013-12-10 05:28:00,
2013-12-09 23:33:00,39.6,37.7,30.16,North,360,0.0,0.0,93,0.01,CLR,,0.25,WeatherDisplay:10.37,2013-12-10 05:33:00,
2013-12-09 23:38:00,39.6,37.7,30.16,North,360,0.0,0.0,93,0.01,CLR,,0.25,WeatherDisplay:10.37,2013-12-10 05:38:00,
2013-12-09 23:43:00,39.6,37.7,30.16,North,360,0.0,0.0,93,0.02,RA,,0.26,WeatherDisplay:10.37,2013-12-10 05:43:00,
2013-12-09 23:48:00,39.6,37.7,30.13,NNE,16,3.5,3.5,93,0.03,RA,,0.27,WeatherDisplay:10.37,2013-12-10 05:48:00,
2013-12-09 23:53:00,39.6,37.7,30.17,NNE,16,0.0,0.0,93,0.06,RA,,0.30,WeatherDisplay:10.37,2013-12-10 05:53:00,
2013-12-09 23:58:00,39.5,37.6,30.15,NE,55,3.5,3.5,93,0.09,RA,,0.33,WeatherDisplay:10.37,2013-12-10 05:58:00,